Time;durP1;ratioP1;P1;durP2;ratioP2;P2;SDS_P1;SDS_P2;PMS_P1;PMS_P2;Temp;Humidity;BMP_temperature;BMP_pressure;BME280_temperature;BME280_humidity;BME280_pressure;Samples;Min_cycle;Max_cycle;Signal;HPM_P1;HPM_P2
2022/03/09 00:01:53;;;;;;;36.33;18.40;;;;;;;-0.45;67.41;101003.19;5590191;31;34357;-62
2022/03/09 00:04:59;;;;;;;39.90;19.67;;;;;;;-0.55;66.67;100995.94;5590138;31;34829;-61
2022/03/09 00:08:01;;;;;;;39.33;19.75;;;;;;;-0.72;67.50;101004.66;5590157;31;34314;-62
2022/03/09 00:11:04;;;;;;;36.05;19.30;;;;;;;-0.74;67.88;101018.69;5590088;31;34582;-62
2022/03/09 00:14:08;;;;;;;39.17;19.48;;;;;;;-0.55;66.78;101025.47;5590291;31;34197;-62
2022/03/09 00:17:11;;;;;;;42.67;20.25;;;;;;;-0.59;67.31;101021.34;5590442;31;34731;-62
2022/03/09 00:20:13;;;;;;;42.22;21.33;;;;;;;-0.70;67.63;101012.41;5589305;31;34888;-62
2022/03/09 00:23:18;;;;;;;44.67;21.42;;;;;;;-0.36;67.00;101011.44;5590009;31;34282;-62
2022/03/09 00:26:20;;;;;;;36.97;20.05;;;;;;;-0.52;67.00;101014.88;5589868;31;34799;-62
2022/03/09 00:29:24;;;;;;;41.45;20.55;;;;;;;-0.57;66.61;101021.25;5589844;31;34218;-62
2022/03/09 00:32:27;;;;;;;41.00;20.83;;;;;;;-0.37;65.17;101018.41;5588900;31;34862;-62
2022/03/09 00:35:30;;;;;;;40.80;19.20;;;;;;;-0.34;65.61;101017.41;5589888;31;34589;-62
2022/03/09 00:38:32;;;;;;;40.88;20.33;;;;;;;-0.44;66.35;101020.50;5589922;31;34216;-61
2022/03/09 00:41:36;;;;;;;43.63;21.12;;;;;;;-0.29;66.33;101012.81;5590022;31;34311;-61
2022/03/09 00:44:39;;;;;;;42.45;21.40;;;;;;;-0.22;67.17;101021.94;5589775;31;34187;-62
2022/03/09 00:47:42;;;;;;;42.40;21.25;;;;;;;-0.15;68.07;101005.91;5589853;31;34253;-62
2022/03/09 00:50:46;;;;;;;45.72;21.92;;;;;;;-0.08;67.96;101011.59;5589098;31;35008;-62
2022/03/09 00:53:49;;;;;;;50.63;22.50;;;;;;;-0.18;69.53;101008.66;5590066;31;34657;-62
2022/03/09 00:56:51;;;;;;;41.92;21.10;;;;;;;-0.28;70.20;101004.88;5589747;31;34922;-61
2022/03/09 00:59:56;;;;;;;40.97;20.50;;;;;;;-0.41;71.18;101003.88;5589736;31;34521;-61
2022/03/09 01:02:59;;;;;;;39.05;19.73;;;;;;;-0.46;71.43;100998.06;5589661;31;34687;-62
2022/03/09 01:06:02;;;;;;;39.28;19.17;;;;;;;-0.35;71.25;100981.84;5589713;31;34142;-62
2022/03/09 01:09:06;;;;;;;35.63;18.85;;;;;;;-0.36;71.51;100987.97;5589783;31;34757;-61
2022/03/09 01:12:09;;;;;;;41.67;19.92;;;;;;;-0.40;71.39;100984.69;5589577;31;34931;-62
2022/03/09 01:15:12;;;;;;;38.63;19.05;;;;;;;-0.62;72.38;100995.44;5589780;31;34858;-61
2022/03/09 01:18:15;;;;;;;43.42;18.62;;;;;;;-0.57;72.11;100995.19;5589540;31;34660;-62
2022/03/09 01:21:20;;;;;;;38.05;17.73;;;;;;;-0.51;71.12;100993.09;5589467;31;34187;-62
2022/03/09 01:24:24;;;;;;;37.60;17.83;;;;;;;-0.58;70.69;100991.72;5589575;31;34829;-62
2022/03/09 01:27:27;;;;;;;36.63;16.92;;;;;;;-0.59;70.27;100981.41;5588747;31;34287;-62
2022/03/09 01:30:29;;;;;;;37.55;17.75;;;;;;;-0.53;70.77;100994.94;5589722;31;34666;-61
2022/03/09 01:33:32;;;;;;;31.77;17.30;;;;;;;-0.50;70.09;101002.59;5589444;31;34269;-62
2022/03/09 01:36:37;;;;;;;34.67;16.50;;;;;;;-0.47;69.63;101005.03;5588628;31;34174;-61
2022/03/09 01:39:39;;;;;;;40.45;16.85;;;;;;;-0.50;69.46;101005.22;5588681;31;34496;-62
2022/03/09 01:42:43;;;;;;;34.40;17.40;;;;;;;-0.55;69.41;101006.37;5589302;31;34253;-61
2022/03/09 01:45:46;;;;;;;34.65;16.30;;;;;;;-0.50;68.25;101010.41;5589167;31;34322;-62
2022/03/09 01:48:48;;;;;;;34.50;16.55;;;;;;;-0.61;68.60;101009.31;5589514;31;34237;-63
2022/03/09 01:52:00;;;;;;;37.33;17.23;;;;;;;-0.76;69.35;101010.94;5589389;31;34277;-62
2022/03/09 01:55:04;;;;;;;31.10;16.48;;;;;;;-0.75;69.84;101009.19;5589185;31;34308;-62
2022/03/09 01:58:06;;;;;;;32.20;16.35;;;;;;;-0.70;70.17;101009.78;5589220;31;34180;-62
2022/03/09 02:01:09;;;;;;;35.15;17.33;;;;;;;-0.73;70.25;101003.00;5589107;31;34340;-62
2022/03/09 02:04:13;;;;;;;32.17;15.85;;;;;;;-0.72;70.54;101014.22;5589026;31;34379;-62
2022/03/09 02:07:16;;;;;;;39.28;16.67;;;;;;;-0.61;69.16;101012.75;5588287;31;34185;-62
2022/03/09 02:10:19;;;;;;;28.33;14.68;;;;;;;-0.51;68.81;101011.34;5588931;31;34274;-62
2022/03/09 02:13:22;;;;;;;27.40;14.93;;;;;;;-0.50;68.76;100999.16;5589004;31;34883;-63
2022/03/09 02:16:25;;;;;;;34.50;14.93;;;;;;;-0.54;68.37;101002.84;5589085;31;34857;-62
2022/03/09 02:19:28;;;;;;;26.62;13.23;;;;;;;-0.60;68.05;100998.81;5588692;31;34232;-62
2022/03/09 02:22:31;;;;;;;29.27;13.40;;;;;;;-0.53;67.55;101002.75;5588709;31;34955;-62
2022/03/09 02:25:34;;;;;;;32.25;13.00;;;;;;;-0.71;68.58;101015.91;5588982;31;34250;-62
2022/03/09 02:28:44;;;;;;;26.80;12.57;;;;;;;-0.73;68.88;101021.22;5588443;31;34165;-62
2022/03/09 02:31:47;;;;;;;27.58;12.60;;;;;;;-0.57;67.83;101010.81;5588466;31;34860;-62
2022/03/09 02:34:50;;;;;;;33.80;14.73;;;;;;;-0.55;68.19;101007.22;5588766;31;34800;-62
2022/03/09 02:37:53;;;;;;;27.05;14.20;;;;;;;-0.46;67.73;101005.88;5589147;31;34221;-62
2022/03/09 02:40:55;;;;;;;27.77;13.00;;;;;;;-0.45;67.18;101004.97;5590303;31;34913;-62
2022/03/09 02:43:58;;;;;;;27.77;12.77;;;;;;;-0.33;66.13;101013.88;5590975;31;34223;-63
2022/03/09 02:47:01;;;;;;;29.58;13.10;;;;;;;-0.48;66.28;101007.72;5590838;31;34201;-63
2022/03/09 02:50:04;;;;;;;27.48;13.25;;;;;;;-0.68;67.23;101002.75;5590977;31;34593;-61
2022/03/09 02:53:08;;;;;;;28.27;13.07;;;;;;;-0.73;67.84;101012.56;5591025;31;33534;-62
2022/03/09 02:56:11;;;;;;;28.48;14.60;;;;;;;-0.75;68.09;100999.63;5590709;31;34969;-62
2022/03/09 02:59:14;;;;;;;24.60;13.35;;;;;;;-0.67;67.89;100987.00;5590768;31;34167;-62
2022/03/09 03:02:18;;;;;;;28.20;12.40;;;;;;;-0.48;67.86;100982.50;5591175;31;34329;-62
2022/03/09 03:05:20;;;;;;;27.13;12.15;;;;;;;-0.34;66.39;100984.38;5590766;31;34776;-62
2022/03/09 03:08:23;;;;;;;29.85;12.35;;;;;;;-0.44;66.42;100989.22;5590738;31;35446;-62
2022/03/09 03:11:25;;;;;;;24.52;12.45;;;;;;;-0.66;67.22;100982.66;5591083;31;34459;-62
2022/03/09 03:14:28;;;;;;;31.23;14.00;;;;;;;-0.77;67.18;100983.22;5590624;31;34235;-62
2022/03/09 03:17:36;;;;;;;31.92;14.65;;;;;;;-0.82;67.91;100981.78;5590513;31;34212;-62
2022/03/09 03:20:39;;;;;;;27.37;13.88;;;;;;;-0.90;68.62;100990.00;5589814;31;34537;-62
2022/03/09 03:23:41;;;;;;;28.12;13.55;;;;;;;-0.82;67.64;100987.00;5590634;31;34169;-62
2022/03/09 03:26:44;;;;;;;27.80;13.38;;;;;;;-0.73;67.05;100982.16;5590416;31;34828;-62
2022/03/09 03:29:47;;;;;;;30.60;14.80;;;;;;;-0.81;67.19;100979.09;5590640;31;34972;-62
2022/03/09 03:32:49;;;;;;;27.55;14.07;;;;;;;-0.82;68.04;101000.03;5590408;31;34814;-62
2022/03/09 03:35:52;;;;;;;31.12;13.93;;;;;;;-0.80;68.60;100987.75;5590414;31;34704;-62
2022/03/09 03:38:55;;;;;;;33.13;14.65;;;;;;;-0.73;67.93;101000.38;5590802;31;34575;-62
2022/03/09 03:41:58;;;;;;;30.58;14.95;;;;;;;-0.76;68.91;100997.06;5590522;31;34819;-62
2022/03/09 03:45:01;;;;;;;32.47;16.08;;;;;;;-0.82;69.14;101000.84;5590425;31;34957;-62
2022/03/09 03:48:07;;;;;;;30.30;14.82;;;;;;;-0.64;69.13;100999.91;5590275;31;35076;-61
2022/03/09 03:51:10;;;;;;;27.27;14.38;;;;;;;-0.66;69.51;100993.06;5590306;31;34973;-62
2022/03/09 03:54:13;;;;;;;36.97;15.40;;;;;;;-0.72;70.14;100996.84;5590304;31;34227;-63
2022/03/09 03:57:16;;;;;;;27.77;13.45;;;;;;;-0.71;70.77;100995.91;5589219;31;32849;-63
2022/03/09 04:00:18;;;;;;;28.87;13.52;;;;;;;-0.61;70.76;100991.91;5590183;31;34411;-61
2022/03/09 04:03:21;;;;;;;29.75;14.18;;;;;;;-0.54;70.57;100997.62;5590216;31;34327;-62
2022/03/09 04:06:24;;;;;;;32.10;15.65;;;;;;;-0.48;70.48;100992.91;5590345;31;34364;-62
2022/03/09 04:09:27;;;;;;;28.20;14.93;;;;;;;-0.60;71.10;100995.34;5590119;31;34594;-61
2022/03/09 04:12:30;;;;;;;33.20;16.42;;;;;;;-0.56;69.85;100994.25;5590423;31;34904;-62
2022/03/09 04:15:33;;;;;;;26.48;13.40;;;;;;;-0.61;70.33;100984.09;5590054;31;34405;-62
2022/03/09 04:18:39;;;;;;;25.62;12.85;;;;;;;-0.71;70.85;100982.87;5590438;31;34278;-62
2022/03/09 04:21:42;;;;;;;24.40;12.90;;;;;;;-0.72;72.53;100970.78;5589934;31;34198;-62
2022/03/09 04:24:45;;;;;;;26.45;13.02;;;;;;;-0.76;73.09;100984.06;5589398;31;32365;-62
2022/03/09 04:27:48;;;;;;;24.42;12.93;;;;;;;-0.77;73.53;100990.19;5589837;31;34864;-62
2022/03/09 04:30:50;;;;;;;26.73;13.10;;;;;;;-0.77;73.87;100992.78;5589691;31;34849;-62
2022/03/09 04:33:54;;;;;;;29.55;15.85;;;;;;;-0.52;72.78;100993.16;5589907;31;34177;-62
2022/03/09 04:36:57;;;;;;;32.58;15.00;;;;;;;-0.52;72.98;100988.81;5589221;31;32560;-62
2022/03/09 04:40:02;;;;;;;35.35;16.60;;;;;;;-0.61;73.70;100989.28;5590176;31;34959;-61
2022/03/09 04:43:05;;;;;;;32.42;15.82;;;;;;;-0.63;74.35;100985.09;5589723;31;34265;-62
2022/03/09 04:46:07;;;;;;;35.47;16.30;;;;;;;-0.62;74.44;100985.00;5590178;31;34307;-62
2022/03/09 04:49:11;;;;;;;33.13;16.48;;;;;;;-0.39;73.75;101001.19;5589780;31;34152;-62
2022/03/09 04:52:14;;;;;;;40.55;17.67;;;;;;;-0.31;73.31;100996.37;5588811;31;33561;-61
2022/03/09 04:55:17;;;;;;;29.48;14.57;;;;;;;-0.46;74.27;100998.91;5589760;31;34959;-62
2022/03/09 04:58:19;;;;;;;31.92;16.02;;;;;;;-0.55;74.83;100996.78;5589688;31;34309;-62
2022/03/09 05:01:22;;;;;;;34.13;16.20;;;;;;;-0.68;75.11;100984.50;5588636;31;34859;-62
2022/03/09 05:04:25;;;;;;;29.52;15.07;;;;;;;-0.71;75.67;100985.50;5589110;31;33870;-62
2022/03/09 05:07:28;;;;;;;31.08;15.35;;;;;;;-0.76;76.06;100976.25;5589736;31;34242;-63
2022/03/09 05:10:31;;;;;;;30.27;14.52;;;;;;;-0.79;76.05;100985.06;5589608;31;34288;-62
2022/03/09 05:13:33;;;;;;;33.88;15.15;;;;;;;-0.77;75.73;100985.81;5589880;31;34212;-62
2022/03/09 05:16:36;;;;;;;28.40;14.77;;;;;;;-0.76;75.17;100986.66;5589486;31;34925;-62
2022/03/09 05:19:40;;;;;;;25.92;12.85;;;;;;;-0.45;72.75;100989.31;5588850;31;34421;-62
2022/03/09 05:22:43;;;;;;;25.55;14.68;;;;;;;-0.45;73.28;100979.75;5589645;31;34698;-63
2022/03/09 05:25:45;;;;;;;31.30;13.73;;;;;;;-0.40;73.32;100981.25;5589557;31;34573;-63
2022/03/09 05:28:56;;;;;;;30.35;14.73;;;;;;;-0.44;72.67;100985.81;5589590;31;34208;-62
2022/03/09 05:31:59;;;;;;;28.60;14.82;;;;;;;-0.57;73.23;100983.00;5589488;31;34985;-62
2022/03/09 05:35:03;;;;;;;30.92;14.45;;;;;;;-0.52;72.99;100985.34;5589102;31;34547;-62
2022/03/09 05:38:05;;;;;;;26.70;14.75;;;;;;;-0.50;74.21;100976.53;5589181;31;34995;-61
2022/03/09 05:41:08;;;;;;;31.40;12.93;;;;;;;-0.46;74.63;100987.62;5589734;31;34288;-62
2022/03/09 05:44:11;;;;;;;22.87;12.65;;;;;;;-0.45;73.82;100998.00;5589413;31;34111;-62
2022/03/09 05:47:14;;;;;;;26.87;13.10;;;;;;;-0.41;73.77;101003.88;5588525;31;33324;-63
2022/03/09 05:50:18;;;;;;;26.77;12.57;;;;;;;-0.30;71.97;101013.72;5589078;31;34690;-63
2022/03/09 05:53:21;;;;;;;28.60;14.43;;;;;;;-0.25;70.75;101033.41;5589566;31;34205;-63
2022/03/09 05:56:24;;;;;;;30.92;14.15;;;;;;;-0.26;70.79;101036.09;5589401;31;34341;-62
2022/03/09 05:59:27;;;;;;;28.80;12.85;;;;;;;-0.12;69.60;101050.06;5588573;31;32960;-62
2022/03/09 06:02:29;;;;;;;24.27;12.10;;;;;;;-0.17;69.00;101049.47;5588854;31;34853;-64
2022/03/09 06:05:32;;;;;;;25.45;12.60;;;;;;;0.03;67.74;101047.53;5588928;31;34657;-63
2022/03/09 06:08:35;;;;;;;29.12;12.40;;;;;;;0.10;66.91;101043.69;5588388;31;33513;-63
2022/03/09 06:11:43;;;;;;;33.10;14.18;;;;;;;0.26;65.97;101047.94;5588500;31;34262;-62
2022/03/09 06:14:45;;;;;;;26.10;13.05;;;;;;;0.30;66.67;101046.00;5588415;31;34533;-62
2022/03/09 06:17:50;;;;;;;26.35;14.60;;;;;;;0.46;64.88;101044.19;5587822;31;33381;-62
2022/03/09 06:20:52;;;;;;;29.85;13.95;;;;;;;0.50;64.92;101048.31;5588545;31;34114;-62
2022/03/09 06:23:55;;;;;;;28.60;13.77;;;;;;;0.48;65.35;101051.97;5588355;31;35032;-62
2022/03/09 06:26:58;;;;;;;33.35;12.90;;;;;;;0.55;65.97;101046.28;5587538;31;33334;-62
2022/03/09 06:30:02;;;;;;;28.08;11.93;;;;;;;0.78;65.14;101040.56;5586523;31;33710;-63
2022/03/09 06:33:07;;;;;;;26.75;14.43;;;;;;;0.83;64.93;101035.91;5587700;31;34676;-62
2022/03/09 06:36:09;;;;;;;31.10;13.88;;;;;;;0.74;66.14;101049.53;5586970;31;33961;-62
2022/03/09 06:39:14;;;;;;;26.02;12.80;;;;;;;0.88;65.85;101043.47;5587760;31;34213;-63
2022/03/09 06:42:18;;;;;;;24.50;12.93;;;;;;;0.92;65.14;101052.81;5574552;31;33473;-62
2022/03/09 06:45:20;;;;;;;27.13;13.35;;;;;;;0.97;64.83;101061.22;5587311;31;34250;-62
2022/03/09 06:48:23;;;;;;;27.35;13.73;;;;;;;0.98;64.52;101062.91;5587886;31;34651;-63
2022/03/09 06:51:26;;;;;;;28.95;14.25;;;;;;;1.16;64.25;101058.41;5586710;31;34551;-63
2022/03/09 06:54:29;;;;;;;27.65;13.68;;;;;;;1.38;63.29;101056.16;5586745;31;32590;-63
2022/03/09 06:57:32;;;;;;;30.08;13.27;;;;;;;1.52;63.67;101060.53;5587247;31;34925;-63
2022/03/09 07:00:39;;;;;;;26.73;13.10;;;;;;;1.88;61.32;101060.06;5586630;31;32961;-63
2022/03/09 07:03:42;;;;;;;31.98;12.93;;;;;;;2.26;59.99;101063.72;5586754;31;33717;-63
2022/03/09 07:06:47;;;;;;;25.02;12.98;;;;;;;2.25;58.26;101064.66;5587356;31;34114;-62
2022/03/09 07:09:49;;;;;;;30.52;13.07;;;;;;;2.46;58.16;101063.28;5586742;31;33013;-63
2022/03/09 07:12:53;;;;;;;27.67;13.77;;;;;;;2.62;57.71;101081.44;5587554;31;34229;-63
2022/03/09 07:15:56;;;;;;;31.52;14.48;;;;;;;2.60;57.67;101088.56;5586582;31;33012;-63
2022/03/09 07:18:59;;;;;;;27.75;13.80;;;;;;;2.60;58.09;101093.81;5586665;31;32897;-63
2022/03/09 07:22:01;;;;;;;25.23;12.50;;;;;;;2.76;57.66;101093.66;5586605;31;32749;-62
2022/03/09 07:25:05;;;;;;;28.65;14.25;;;;;;;2.90;56.93;101086.56;5589243;31;34126;-63
2022/03/09 07:28:07;;;;;;;24.37;13.20;;;;;;;2.88;56.96;101064.84;5588769;31;34489;-63
2022/03/09 07:31:10;;;;;;;27.67;13.27;;;;;;;2.86;56.96;101056.25;5588624;31;32934;-63
2022/03/09 07:34:13;;;;;;;24.90;13.40;;;;;;;3.17;56.40;101041.06;5590086;31;34544;-63
2022/03/09 07:37:16;;;;;;;25.37;13.77;;;;;;;3.50;55.52;101047.47;5590108;31;34710;-63
2022/03/09 07:40:19;;;;;;;26.60;13.15;;;;;;;3.69;54.69;101047.03;5589005;31;33211;-63
2022/03/09 07:43:22;;;;;;;25.95;13.75;;;;;;;3.74;54.95;101050.16;5590266;31;34600;-62
2022/03/09 07:46:25;;;;;;;26.75;13.20;;;;;;;3.83;54.38;101046.03;5589511;31;33131;-63
2022/03/09 07:49:28;;;;;;;29.55;13.35;;;;;;;3.91;54.47;101049.84;5590049;31;34275;-63
2022/03/09 07:52:31;;;;;;;29.25;13.82;;;;;;;3.90;54.41;101048.16;5590394;31;34439;-62
2022/03/09 07:55:34;;;;;;;42.05;14.68;;;;;;;4.08;54.39;101045.97;5590474;31;34233;-62
2022/03/09 07:58:39;;;;;;;32.25;14.13;;;;;;;4.40;53.42;101045.47;5590048;31;34878;-63
2022/03/09 08:01:42;;;;;;;34.17;14.70;;;;;;;4.42;52.80;101048.78;5589014;31;32983;-63
2022/03/09 08:04:45;;;;;;;24.85;13.52;;;;;;;4.20;53.69;101037.25;5576350;31;32696;-64
2022/03/09 08:07:48;;;;;;;37.72;15.93;;;;;;;4.34;53.29;101031.81;5588915;31;33501;-63
2022/03/09 08:10:51;;;;;;;44.45;15.00;;;;;;;4.15;53.62;101030.63;5589563;31;33927;-63
2022/03/09 08:13:54;;;;;;;48.70;15.32;;;;;;;4.00;55.06;101037.00;5589485;31;33412;-63
2022/03/09 08:16:57;;;;;;;28.10;14.68;;;;;;;4.28;53.87;101024.38;5589846;31;34168;-63
2022/03/09 08:20:02;;;;;;;29.15;14.85;;;;;;;4.31;53.45;101018.88;5589928;31;34925;-63
2022/03/09 08:23:06;;;;;;;29.52;15.13;;;;;;;4.34;53.87;101023.94;5590003;31;34597;-63
2022/03/09 08:26:08;;;;;;;25.83;13.65;;;;;;;4.40;53.11;101021.81;5588913;31;34352;-64
2022/03/09 08:29:12;;;;;;;25.25;13.13;;;;;;;4.67;52.32;101009.25;5588988;31;32763;-64
2022/03/09 08:32:14;;;;;;;25.55;13.15;;;;;;;4.93;51.17;101018.66;5588964;31;34486;-63
2022/03/09 08:35:17;;;;;;;33.25;14.30;;;;;;;5.24;50.20;101022.41;5588576;31;34585;-64
2022/03/09 08:38:20;;;;;;;23.35;12.45;;;;;;;5.63;49.59;101011.41;5589567;31;34592;-63
2022/03/09 08:41:26;;;;;;;23.95;12.65;;;;;;;6.39;47.96;101007.09;5588941;31;33176;-64
2022/03/09 08:44:28;;;;;;;20.92;12.88;;;;;;;7.46;44.65;101007.63;5588396;31;33739;-64
2022/03/09 08:47:33;;;;;;;22.27;11.63;;;;;;;8.35;43.12;101005.94;5576079;31;33840;-64
2022/03/09 08:50:36;;;;;;;15.52;9.18;;;;;;;8.15;42.70;101005.06;5588710;31;32705;-64
2022/03/09 08:53:43;;;;;;;21.27;11.32;;;;;;;8.66;41.00;101000.41;5589025;31;34939;-63
2022/03/09 08:56:46;;;;;;;20.55;11.00;;;;;;;7.79;43.06;100998.59;5589342;31;34883;-63
2022/03/09 08:59:48;;;;;;;24.17;12.15;;;;;;;6.95;45.06;100994.47;5588816;31;33725;-62
2022/03/09 09:02:52;;;;;;;25.95;12.43;;;;;;;6.85;45.92;100999.69;5589510;31;34190;-63
2022/03/09 09:05:55;;;;;;;25.92;10.73;;;;;;;6.85;45.82;100999.69;5588516;31;34364;-63
2022/03/09 09:08:58;;;;;;;21.90;11.70;;;;;;;6.34;46.70;100994.28;5589498;31;34651;-63
2022/03/09 09:12:02;;;;;;;24.73;11.90;;;;;;;6.15;47.04;101002.00;5588615;31;33207;-63
2022/03/09 09:15:05;;;;;;;20.60;10.75;;;;;;;6.24;47.29;101000.44;5589133;31;34201;-64
2022/03/09 09:18:08;;;;;;;21.92;11.52;;;;;;;6.00;47.57;101001.44;5588333;31;33529;-64
2022/03/09 09:21:28;;;;;;;18.48;11.15;;;;;;;6.19;47.73;100998.19;5588941;31;34267;-65
2022/03/09 09:24:32;;;;;;;23.10;12.15;;;;;;;6.18;47.55;100982.50;5589301;31;34413;-65
2022/03/09 09:27:34;;;;;;;20.88;11.70;;;;;;;6.14;48.27;100989.81;5588454;31;33467;-63
2022/03/09 09:30:49;;;;;;;22.15;11.43;;;;;;;5.92;48.58;100989.84;5589184;31;34855;-63
2022/03/09 09:33:52;;;;;;;28.12;11.90;;;;;;;6.08;48.50;100987.66;5588546;31;34146;-63
2022/03/09 09:36:55;;;;;;;25.08;11.57;;;;;;;6.16;48.96;100993.16;5588979;31;34916;-63
2022/03/09 09:39:57;;;;;;;22.50;11.93;;;;;;;5.77;48.97;100991.88;5587896;31;32740;-63
2022/03/09 09:43:07;;;;;;;21.62;11.63;;;;;;;5.78;49.57;100995.34;5588264;31;33744;-64
2022/03/09 09:46:15;;;;;;;24.60;12.47;;;;;;;6.19;49.11;100994.72;5588489;31;34212;-63
2022/03/09 09:49:23;;;;;;;23.42;12.48;;;;;;;6.21;48.74;100982.22;5589058;31;34378;-64
2022/03/09 09:52:28;;;;;;;26.25;11.65;;;;;;;6.22;49.22;100997.09;5587928;31;33757;-64
2022/03/09 09:55:32;;;;;;;19.70;10.85;;;;;;;6.07;48.88;100988.63;5589084;31;34238;-64
2022/03/09 09:58:36;;;;;;;17.02;10.38;;;;;;;6.20;48.74;100980.56;5587764;31;33109;-64
2022/03/09 10:01:40;;;;;;;17.25;10.90;;;;;;;6.17;48.92;100993.97;5589053;31;34957;-63
2022/03/09 10:04:45;;;;;;;16.35;10.35;;;;;;;5.93;49.28;100981.84;5587797;31;33759;-63
2022/03/09 10:08:02;;;;;;;18.77;10.57;;;;;;;6.10;49.18;100985.72;5589106;31;34280;-64
2022/03/09 10:11:06;;;;;;;21.48;10.23;;;;;;;6.60;48.00;100983.38;5588787;31;34182;-63
2022/03/09 10:14:09;;;;;;;17.40;9.95;;;;;;;6.50;48.03;100985.94;5588735;31;34172;-63
2022/03/09 10:17:16;;;;;;;18.40;9.57;;;;;;;6.65;47.95;100987.31;5588676;31;34271;-63
2022/03/09 10:20:23;;;;;;;18.95;9.63;;;;;;;7.01;47.10;100983.41;5588864;31;34242;-63
2022/03/09 10:23:25;;;;;;;16.87;9.27;;;;;;;7.10;47.05;100979.13;5588971;31;34394;-64
2022/03/09 10:26:48;;;;;;;16.80;9.80;;;;;;;7.17;46.50;100973.19;5588551;31;34228;-64
2022/03/09 10:29:54;;;;;;;22.42;10.93;;;;;;;7.20;46.99;100972.94;5587338;31;33696;-63
2022/03/09 10:32:59;;;;;;;16.42;9.63;;;;;;;7.25;46.90;100960.19;5588075;31;34822;-62
2022/03/09 10:36:03;;;;;;;23.50;9.88;;;;;;;7.47;46.49;100964.44;5587917;31;34205;-62
2022/03/09 10:39:14;;;;;;;18.77;9.73;;;;;;;7.69;46.01;100953.69;5588622;31;34140;-62
2022/03/09 10:42:23;;;;;;;18.85;10.45;;;;;;;7.81;45.96;100949.94;5587271;31;32775;-63
2022/03/09 10:45:26;;;;;;;17.30;9.98;;;;;;;7.68;46.29;100946.72;5588087;31;35453;-61
2022/03/09 10:49:07;;;;;;;17.87;9.65;;;;;;;7.58;46.86;100937.94;5592059;31;35108;-61
2022/03/09 10:52:11;;;;;;;15.32;9.43;;;;;;;7.52;47.62;100937.63;5588130;31;34198;-62
2022/03/09 10:55:36;;;;;;;23.38;10.52;;;;;;;7.10;48.45;100929.84;5588653;31;34227;-65
2022/03/09 10:58:40;;;;;;;18.50;9.73;;;;;;;7.06;48.73;100917.06;5588562;31;34276;-63
2022/03/09 11:02:07;;;;;;;19.77;10.27;;;;;;;6.95;49.42;100929.34;5589549;31;35744;-63
2022/03/09 11:05:14;;;;;;;21.10;10.50;;;;;;;6.96;49.09;100919.66;5590321;31;34567;-63
2022/03/09 11:08:20;;;;;;;18.33;10.55;;;;;;;7.14;49.00;100918.06;5589779;31;33890;-63
2022/03/09 11:11:23;;;;;;;19.73;10.88;;;;;;;7.30;48.38;100909.66;5589584;31;32859;-63
2022/03/09 11:14:26;;;;;;;20.70;10.50;;;;;;;7.52;48.70;100913.88;5589065;31;33215;-63
2022/03/09 11:17:29;;;;;;;16.77;11.05;;;;;;;7.99;47.95;100907.00;5590454;31;34506;-62
2022/03/09 11:20:32;;;;;;;21.27;10.55;;;;;;;8.45;46.07;100906.31;5589302;31;35087;-63
2022/03/09 11:23:39;;;;;;;19.10;11.02;;;;;;;10.64;40.50;100901.75;5590194;31;34300;-63
2022/03/09 11:26:46;;;;;;;16.65;10.02;;;;;;;12.79;36.84;100893.81;5590299;31;34857;-64
2022/03/09 11:29:49;;;;;;;19.30;10.63;;;;;;;12.92;36.32;100899.47;5590083;31;34243;-64
2022/03/09 11:32:57;;;;;;;13.65;9.63;;;;;;;13.76;33.80;100904.97;5589600;31;34930;-64
2022/03/09 11:36:00;;;;;;;16.40;9.90;;;;;;;13.82;33.75;100895.44;5590019;31;34842;-63
2022/03/09 11:39:03;;;;;;;18.95;10.52;;;;;;;14.65;32.20;100887.47;5589978;31;34282;-63
2022/03/09 11:42:21;;;;;;;18.08;10.05;;;;;;;15.69;30.59;100881.09;5589582;31;33116;-64
2022/03/09 11:45:31;;;;;;;14.23;8.70;;;;;;;17.50;27.90;100883.75;5589470;31;34322;-64
2022/03/09 11:48:55;;;;;;;14.90;8.93;;;;;;;19.21;25.72;100883.88;5589936;31;34616;-65
2022/03/09 11:52:10;;;;;;;16.77;9.00;;;;;;;18.77;26.12;100883.75;5588626;31;33845;-64
2022/03/09 11:55:18;;;;;;;15.43;8.90;;;;;;;18.39;26.28;100867.44;5590027;31;34244;-64
2022/03/09 11:58:21;;;;;;;11.77;7.37;;;;;;;19.55;24.69;100863.06;5589117;31;34632;-64
2022/03/09 12:01:23;;;;;;;11.82;7.35;;;;;;;18.72;25.61;100860.19;5590160;31;34842;-64
2022/03/09 12:04:42;;;;;;;8.82;5.90;;;;;;;20.59;23.74;100860.69;5588882;31;33568;-65
2022/03/09 12:07:47;;;;;;;8.85;5.28;;;;;;;20.61;22.44;100861.31;5589939;31;35593;-65
2022/03/09 12:10:51;;;;;;;8.35;5.53;;;;;;;19.56;23.46;100857.47;5588914;31;35436;-65
2022/03/09 12:13:53;;;;;;;8.18;5.25;;;;;;;18.75;23.87;100851.72;5576028;31;32759;-65
2022/03/09 12:17:00;;;;;;;6.78;4.82;;;;;;;18.58;25.38;100845.12;5589715;31;34738;-64
2022/03/09 12:20:18;;;;;;;7.95;5.62;;;;;;;18.45;24.52;100842.41;5590139;31;34284;-65
2022/03/09 12:23:21;;;;;;;11.45;6.72;;;;;;;18.98;24.38;100859.31;5589643;31;34884;-65
2022/03/09 12:26:41;;;;;;;10.02;7.30;;;;;;;18.40;25.58;100845.72;5589657;31;34705;-64
2022/03/09 12:29:44;;;;;;;11.10;6.75;;;;;;;21.96;22.04;100844.75;5589072;31;33513;-65
2022/03/09 12:32:51;;;;;;;11.88;7.22;;;;;;;22.40;20.96;100839.91;5589848;31;34300;-65
2022/03/09 12:36:18;;;;;;;14.10;7.25;;;;;;;19.49;24.07;100843.22;5589714;31;34230;-64
2022/03/09 12:39:32;;;;;;;11.77;7.97;;;;;;;17.59;26.28;100839.63;5576698;31;32717;-64
2022/03/09 12:42:35;;;;;;;11.35;7.62;;;;;;;15.52;29.45;100843.06;5589736;31;34218;-63
2022/03/09 12:45:52;;;;;;;12.75;7.65;;;;;;;14.51;31.42;100843.72;5589618;31;34421;-63
2022/03/09 12:49:04;;;;;;;11.85;7.12;;;;;;;14.59;31.28;100848.16;5589504;31;34902;-63
2022/03/09 12:52:14;;;;;;;10.50;6.90;;;;;;;13.57;33.37;100851.25;5588706;31;33046;-63
2022/03/09 12:55:18;;;;;;;13.90;6.97;;;;;;;13.46;33.28;100845.31;5589635;31;34266;-63
2022/03/09 12:58:22;;;;;;;10.73;6.78;;;;;;;12.88;34.25;100850.19;5589467;31;34848;-63
2022/03/09 13:01:25;;;;;;;10.80;6.50;;;;;;;12.06;35.59;100849.47;5589698;31;34825;-63
2022/03/09 13:04:27;;;;;;;10.85;6.72;;;;;;;11.30;36.95;100841.69;5589618;31;34929;-63
2022/03/09 13:07:31;;;;;;;11.98;7.07;;;;;;;11.25;37.80;100844.00;5589577;31;34379;-63
2022/03/09 13:10:41;;;;;;;9.90;6.25;;;;;;;11.12;38.20;100840.97;5589399;31;34213;-63
2022/03/09 13:13:46;;;;;;;10.85;6.50;;;;;;;11.07;38.12;100834.47;5589423;31;34629;-64
2022/03/09 13:17:03;;;;;;;13.30;6.65;;;;;;;11.17;38.44;100832.50;5589286;31;34650;-64
2022/03/09 13:20:07;;;;;;;13.68;6.40;;;;;;;10.71;38.83;100825.81;5589151;31;34111;-64
2022/03/09 13:23:26;;;;;;;13.60;6.30;;;;;;;11.24;37.86;100821.06;5588421;31;34331;-63
2022/03/09 13:26:41;;;;;;;13.47;6.40;;;;;;;12.11;36.36;100817.06;5589281;31;34269;-64
2022/03/09 13:29:45;;;;;;;18.65;6.18;;;;;;;13.39;34.10;100819.56;5589210;31;34491;-63
2022/03/09 13:32:48;;;;;;;11.40;6.00;;;;;;;13.06;33.94;100816.19;5588964;31;34155;-64
2022/03/09 13:35:52;;;;;;;10.40;5.95;;;;;;;12.14;35.99;100814.09;5575522;31;33647;-65
2022/03/09 13:38:57;;;;;;;12.35;5.75;;;;;;;11.59;36.94;100809.38;5589243;31;34610;-64
2022/03/09 13:42:03;;;;;;;9.40;5.78;;;;;;;11.33;37.65;100805.97;5589013;31;34827;-63
2022/03/09 13:45:10;;;;;;;10.82;5.70;;;;;;;10.81;38.30;100806.13;5588957;31;34240;-63
2022/03/09 13:48:22;;;;;;;12.52;5.28;;;;;;;10.59;38.64;100801.41;5588698;31;34306;-64
2022/03/09 13:51:32;;;;;;;11.75;6.03;;;;;;;10.58;39.21;100802.38;5588947;31;34970;-63
2022/03/09 13:54:44;;;;;;;9.25;5.68;;;;;;;10.48;39.53;100803.47;5588824;31;34167;-63
2022/03/09 13:57:59;;;;;;;14.85;5.10;;;;;;;10.64;39.24;100801.75;5589314;31;34173;-63
2022/03/09 14:01:05;;;;;;;9.75;5.57;;;;;;;10.78;39.19;100808.28;5588878;31;34227;-62
2022/03/09 14:04:11;;;;;;;8.80;5.30;;;;;;;10.33;40.21;100806.69;5588908;31;34867;-62
2022/03/09 14:07:16;;;;;;;9.75;5.35;;;;;;;10.51;40.30;100798.69;5588730;31;35537;-62